sensor_id;sensor_type;location;lat;lon;timestamp;P1;durP1;ratioP1;P2;durP2;ratioP2
19396;SDS011;9834;48.076;11.878;2023-03-20T00:01:52;4.57;;;3.00;;
19396;SDS011;9834;48.076;11.878;2023-03-20T00:04:21;2.83;;;2.43;;
19396;SDS011;9834;48.076;11.878;2023-03-20T00:06:50;2.23;;;1.87;;
19396;SDS011;9834;48.076;11.878;2023-03-20T00:09:17;2.30;;;1.90;;
19396;SDS011;9834;48.076;11.878;2023-03-20T00:11:46;2.70;;;2.30;;
19396;SDS011;9834;48.076;11.878;2023-03-20T00:14:14;3.60;;;2.83;;
19396;SDS011;9834;48.076;11.878;2023-03-20T00:16:44;6.13;;;2.63;;
19396;SDS011;9834;48.076;11.878;2023-03-20T00:19:13;2.27;;;2.07;;
19396;SDS011;9834;48.076;11.878;2023-03-20T00:21:44;3.13;;;2.40;;
19396;SDS011;9834;48.076;11.878;2023-03-20T00:24:12;2.50;;;2.30;;
19396;SDS011;9834;48.076;11.878;2023-03-20T00:26:39;2.73;;;1.93;;
19396;SDS011;9834;48.076;11.878;2023-03-20T00:29:11;2.97;;;2.63;;
19396;SDS011;9834;48.076;11.878;2023-03-20T00:31:42;3.80;;;2.57;;
19396;SDS011;9834;48.076;11.878;2023-03-20T00:34:11;2.93;;;2.10;;
19396;SDS011;9834;48.076;11.878;2023-03-20T00:36:39;3.60;;;2.30;;
19396;SDS011;9834;48.076;11.878;2023-03-20T00:39:08;2.20;;;2.00;;
19396;SDS011;9834;48.076;11.878;2023-03-20T00:41:37;2.43;;;2.23;;
19396;SDS011;9834;48.076;11.878;2023-03-20T00:44:13;2.60;;;2.20;;
19396;SDS011;9834;48.076;11.878;2023-03-20T00:46:46;2.90;;;2.60;;
19396;SDS011;9834;48.076;11.878;2023-03-20T00:49:17;2.40;;;2.20;;
19396;SDS011;9834;48.076;11.878;2023-03-20T00:51:46;6.93;;;2.57;;
19396;SDS011;9834;48.076;11.878;2023-03-20T00:54:15;2.60;;;2.40;;
19396;SDS011;9834;48.076;11.878;2023-03-20T00:56:44;2.37;;;2.17;;
19396;SDS011;9834;48.076;11.878;2023-03-20T00:59:14;2.23;;;2.03;;
19396;SDS011;9834;48.076;11.878;2023-03-20T01:01:45;2.63;;;2.17;;
19396;SDS011;9834;48.076;11.878;2023-03-20T01:04:13;3.47;;;1.77;;
19396;SDS011;9834;48.076;11.878;2023-03-20T01:06:43;4.37;;;3.10;;
19396;SDS011;9834;48.076;11.878;2023-03-20T01:09:11;2.73;;;2.13;;
19396;SDS011;9834;48.076;11.878;2023-03-20T01:11:40;2.27;;;2.07;;
19396;SDS011;9834;48.076;11.878;2023-03-20T01:14:11;2.57;;;2.37;;
19396;SDS011;9834;48.076;11.878;2023-03-20T01:16:40;3.60;;;2.90;;
19396;SDS011;9834;48.076;11.878;2023-03-20T01:19:09;2.83;;;2.43;;
19396;SDS011;9834;48.076;11.878;2023-03-20T01:21:37;5.30;;;2.60;;
19396;SDS011;9834;48.076;11.878;2023-03-20T01:24:05;2.93;;;2.33;;
19396;SDS011;9834;48.076;11.878;2023-03-20T01:26:33;2.77;;;2.50;;
19396;SDS011;9834;48.076;11.878;2023-03-20T01:29:04;4.73;;;2.47;;
19396;SDS011;9834;48.076;11.878;2023-03-20T01:31:36;3.03;;;2.73;;
19396;SDS011;9834;48.076;11.878;2023-03-20T01:34:04;2.67;;;2.47;;
19396;SDS011;9834;48.076;11.878;2023-03-20T01:36:32;3.07;;;2.60;;
19396;SDS011;9834;48.076;11.878;2023-03-20T01:39:00;2.83;;;2.60;;
19396;SDS011;9834;48.076;11.878;2023-03-20T01:41:28;3.00;;;2.70;;
19396;SDS011;9834;48.076;11.878;2023-03-20T01:43:57;2.50;;;2.30;;
19396;SDS011;9834;48.076;11.878;2023-03-20T01:46:39;2.57;;;2.37;;
19396;SDS011;9834;48.076;11.878;2023-03-20T01:49:08;3.20;;;2.30;;
19396;SDS011;9834;48.076;11.878;2023-03-20T01:52:13;3.00;;;2.70;;
19396;SDS011;9834;48.076;11.878;2023-03-20T01:54:41;3.10;;;2.63;;
19396;SDS011;9834;48.076;11.878;2023-03-20T01:57:09;3.90;;;3.07;;
19396;SDS011;9834;48.076;11.878;2023-03-20T01:59:40;2.17;;;2.03;;
19396;SDS011;9834;48.076;11.878;2023-03-20T02:02:14;2.50;;;2.17;;
19396;SDS011;9834;48.076;11.878;2023-03-20T02:04:45;5.60;;;3.20;;
19396;SDS011;9834;48.076;11.878;2023-03-20T02:07:17;4.13;;;2.57;;
19396;SDS011;9834;48.076;11.878;2023-03-20T02:09:47;1.90;;;1.73;;
19396;SDS011;9834;48.076;11.878;2023-03-20T02:12:15;3.33;;;2.13;;
19396;SDS011;9834;48.076;11.878;2023-03-20T02:14:43;2.20;;;2.00;;
19396;SDS011;9834;48.076;11.878;2023-03-20T02:17:13;2.23;;;1.83;;
19396;SDS011;9834;48.076;11.878;2023-03-20T02:19:43;1.83;;;1.73;;
19396;SDS011;9834;48.076;11.878;2023-03-20T02:22:39;2.37;;;2.13;;
19396;SDS011;9834;48.076;11.878;2023-03-20T02:25:24;1.93;;;1.83;;
19396;SDS011;9834;48.076;11.878;2023-03-20T02:28:27;1.53;;;1.43;;
19396;SDS011;9834;48.076;11.878;2023-03-20T02:31:27;2.77;;;2.03;;
19396;SDS011;9834;48.076;11.878;2023-03-20T02:40:30;1.60;;;1.50;;
19396;SDS011;9834;48.076;11.878;2023-03-20T02:43:06;1.70;;;1.60;;
19396;SDS011;9834;48.076;11.878;2023-03-20T02:45:42;1.70;;;1.60;;
19396;SDS011;9834;48.076;11.878;2023-03-20T02:48:15;3.07;;;2.40;;
19396;SDS011;9834;48.076;11.878;2023-03-20T02:50:54;1.93;;;1.73;;
19396;SDS011;9834;48.076;11.878;2023-03-20T02:53:31;1.73;;;1.63;;
19396;SDS011;9834;48.076;11.878;2023-03-20T02:56:12;2.40;;;1.93;;
19396;SDS011;9834;48.076;11.878;2023-03-20T02:58:45;4.07;;;2.23;;
19396;SDS011;9834;48.076;11.878;2023-03-20T03:01:16;11.13;;;2.30;;
19396;SDS011;9834;48.076;11.878;2023-03-20T03:03:49;3.53;;;1.90;;
19396;SDS011;9834;48.076;11.878;2023-03-20T03:06:21;2.20;;;2.00;;
19396;SDS011;9834;48.076;11.878;2023-03-20T03:08:54;2.10;;;1.90;;
19396;SDS011;9834;48.076;11.878;2023-03-20T03:11:28;1.50;;;1.40;;
19396;SDS011;9834;48.076;11.878;2023-03-20T03:13:58;5.47;;;1.60;;
19396;SDS011;9834;48.076;11.878;2023-03-20T03:16:27;2.50;;;1.97;;
19396;SDS011;9834;48.076;11.878;2023-03-20T03:18:59;1.63;;;1.53;;
19396;SDS011;9834;48.076;11.878;2023-03-20T03:21:30;2.40;;;2.20;;
19396;SDS011;9834;48.076;11.878;2023-03-20T03:24:01;2.93;;;1.87;;
19396;SDS011;9834;48.076;11.878;2023-03-20T03:26:32;2.07;;;1.87;;
19396;SDS011;9834;48.076;11.878;2023-03-20T03:29:04;2.93;;;1.70;;
19396;SDS011;9834;48.076;11.878;2023-03-20T03:31:37;1.60;;;1.50;;
19396;SDS011;9834;48.076;11.878;2023-03-20T03:34:06;3.10;;;2.13;;
19396;SDS011;9834;48.076;11.878;2023-03-20T03:36:38;1.73;;;1.63;;
19396;SDS011;9834;48.076;11.878;2023-03-20T03:39:16;1.77;;;1.67;;
19396;SDS011;9834;48.076;11.878;2023-03-20T03:41:51;2.27;;;1.77;;
19396;SDS011;9834;48.076;11.878;2023-03-20T03:44:24;2.70;;;1.73;;
19396;SDS011;9834;48.076;11.878;2023-03-20T03:46:55;1.70;;;1.60;;
19396;SDS011;9834;48.076;11.878;2023-03-20T03:49:26;2.03;;;1.83;;
19396;SDS011;9834;48.076;11.878;2023-03-20T03:51:58;1.70;;;1.60;;
19396;SDS011;9834;48.076;11.878;2023-03-20T03:54:29;1.77;;;1.67;;
19396;SDS011;9834;48.076;11.878;2023-03-20T03:57:01;1.70;;;1.40;;
19396;SDS011;9834;48.076;11.878;2023-03-20T03:59:32;4.23;;;2.13;;
19396;SDS011;9834;48.076;11.878;2023-03-20T04:02:03;1.97;;;1.77;;
19396;SDS011;9834;48.076;11.878;2023-03-20T04:04:33;1.70;;;1.37;;
19396;SDS011;9834;48.076;11.878;2023-03-20T04:07:05;2.13;;;1.83;;
19396;SDS011;9834;48.076;11.878;2023-03-20T04:09:32;1.70;;;1.50;;
19396;SDS011;9834;48.076;11.878;2023-03-20T04:12:00;1.87;;;1.50;;
19396;SDS011;9834;48.076;11.878;2023-03-20T04:14:29;1.70;;;1.60;;
19396;SDS011;9834;48.076;11.878;2023-03-20T04:16:56;1.87;;;1.67;;
19396;SDS011;9834;48.076;11.878;2023-03-20T04:19:23;1.60;;;1.50;;
19396;SDS011;9834;48.076;11.878;2023-03-20T04:21:51;2.00;;;1.73;;
19396;SDS011;9834;48.076;11.878;2023-03-20T04:24:19;2.07;;;1.90;;
19396;SDS011;9834;48.076;11.878;2023-03-20T04:26:46;2.37;;;1.87;;
19396;SDS011;9834;48.076;11.878;2023-03-20T04:29:16;1.40;;;1.30;;
19396;SDS011;9834;48.076;11.878;2023-03-20T04:31:43;1.90;;;1.73;;
19396;SDS011;9834;48.076;11.878;2023-03-20T04:34:11;1.60;;;1.50;;
19396;SDS011;9834;48.076;11.878;2023-03-20T04:36:38;2.37;;;2.03;;
19396;SDS011;9834;48.076;11.878;2023-03-20T04:39:06;1.70;;;1.60;;
19396;SDS011;9834;48.076;11.878;2023-03-20T04:41:33;1.50;;;1.40;;
19396;SDS011;9834;48.076;11.878;2023-03-20T04:44:00;2.00;;;1.90;;
19396;SDS011;9834;48.076;11.878;2023-03-20T04:46:29;2.67;;;1.70;;
19396;SDS011;9834;48.076;11.878;2023-03-20T04:48:57;1.63;;;1.53;;
19396;SDS011;9834;48.076;11.878;2023-03-20T04:51:24;1.87;;;1.77;;
19396;SDS011;9834;48.076;11.878;2023-03-20T04:53:52;1.60;;;1.50;;
19396;SDS011;9834;48.076;11.878;2023-03-20T04:56:20;1.47;;;1.37;;
19396;SDS011;9834;48.076;11.878;2023-03-20T04:58:47;1.57;;;1.43;;
19396;SDS011;9834;48.076;11.878;2023-03-20T05:01:15;1.63;;;1.53;;
19396;SDS011;9834;48.076;11.878;2023-03-20T05:03:43;2.10;;;1.90;;
19396;SDS011;9834;48.076;11.878;2023-03-20T05:06:11;2.47;;;1.60;;
19396;SDS011;9834;48.076;11.878;2023-03-20T05:08:39;1.70;;;1.30;;
19396;SDS011;9834;48.076;11.878;2023-03-20T05:11:06;1.40;;;1.30;;
19396;SDS011;9834;48.076;11.878;2023-03-20T05:13:34;1.60;;;1.50;;
19396;SDS011;9834;48.076;11.878;2023-03-20T05:16:01;1.83;;;1.67;;
19396;SDS011;9834;48.076;11.878;2023-03-20T05:18:29;3.00;;;1.63;;
19396;SDS011;9834;48.076;11.878;2023-03-20T05:20:58;1.60;;;1.50;;
19396;SDS011;9834;48.076;11.878;2023-03-20T05:23:27;1.50;;;1.40;;
19396;SDS011;9834;48.076;11.878;2023-03-20T05:25:54;1.60;;;1.50;;
19396;SDS011;9834;48.076;11.878;2023-03-20T05:28:22;4.97;;;2.10;;
19396;SDS011;9834;48.076;11.878;2023-03-20T05:30:49;1.83;;;1.73;;
19396;SDS011;9834;48.076;11.878;2023-03-20T05:33:16;1.87;;;1.60;;
19396;SDS011;9834;48.076;11.878;2023-03-20T05:35:44;3.43;;;1.93;;
19396;SDS011;9834;48.076;11.878;2023-03-20T05:38:13;1.10;;;1.10;;
19396;SDS011;9834;48.076;11.878;2023-03-20T05:40:40;0.93;;;0.93;;
19396;SDS011;9834;48.076;11.878;2023-03-20T05:43:08;1.73;;;1.50;;
19396;SDS011;9834;48.076;11.878;2023-03-20T05:45:35;1.77;;;1.60;;
19396;SDS011;9834;48.076;11.878;2023-03-20T05:48:02;1.87;;;1.73;;
19396;SDS011;9834;48.076;11.878;2023-03-20T05:50:30;1.63;;;1.43;;
19396;SDS011;9834;48.076;11.878;2023-03-20T05:52:58;2.30;;;2.10;;
19396;SDS011;9834;48.076;11.878;2023-03-20T05:55:27;1.90;;;1.80;;
19396;SDS011;9834;48.076;11.878;2023-03-20T05:57:54;2.37;;;1.87;;
19396;SDS011;9834;48.076;11.878;2023-03-20T06:00:22;1.80;;;1.70;;
19396;SDS011;9834;48.076;11.878;2023-03-20T06:02:50;2.87;;;2.53;;
19396;SDS011;9834;48.076;11.878;2023-03-20T06:05:17;2.60;;;1.97;;
19396;SDS011;9834;48.076;11.878;2023-03-20T06:07:45;2.57;;;2.20;;
19396;SDS011;9834;48.076;11.878;2023-03-20T06:10:12;1.93;;;1.80;;
19396;SDS011;9834;48.076;11.878;2023-03-20T06:12:41;1.90;;;1.70;;
19396;SDS011;9834;48.076;11.878;2023-03-20T06:15:09;2.00;;;1.80;;
19396;SDS011;9834;48.076;11.878;2023-03-20T06:17:37;2.13;;;1.93;;
19396;SDS011;9834;48.076;11.878;2023-03-20T06:20:05;2.40;;;2.20;;
19396;SDS011;9834;48.076;11.878;2023-03-20T06:22:34;2.10;;;1.73;;
19396;SDS011;9834;48.076;11.878;2023-03-20T06:25:01;1.50;;;1.40;;
19396;SDS011;9834;48.076;11.878;2023-03-20T06:27:29;3.67;;;1.90;;
19396;SDS011;9834;48.076;11.878;2023-03-20T06:29:57;1.73;;;1.63;;
19396;SDS011;9834;48.076;11.878;2023-03-20T06:32:25;2.07;;;1.70;;
19396;SDS011;9834;48.076;11.878;2023-03-20T06:34:52;2.30;;;2.00;;
19396;SDS011;9834;48.076;11.878;2023-03-20T06:37:19;1.50;;;1.40;;
19396;SDS011;9834;48.076;11.878;2023-03-20T06:39:47;1.77;;;1.63;;
19396;SDS011;9834;48.076;11.878;2023-03-20T06:42:15;2.37;;;1.97;;
19396;SDS011;9834;48.076;11.878;2023-03-20T06:44:42;1.80;;;1.70;;
19396;SDS011;9834;48.076;11.878;2023-03-20T06:47:11;2.63;;;2.43;;
19396;SDS011;9834;48.076;11.878;2023-03-20T06:49:39;3.00;;;2.23;;
19396;SDS011;9834;48.076;11.878;2023-03-20T06:52:06;3.67;;;2.33;;
19396;SDS011;9834;48.076;11.878;2023-03-20T06:54:37;2.13;;;1.93;;
19396;SDS011;9834;48.076;11.878;2023-03-20T06:57:04;2.27;;;2.07;;
19396;SDS011;9834;48.076;11.878;2023-03-20T06:59:31;2.63;;;2.43;;
19396;SDS011;9834;48.076;11.878;2023-03-20T07:01:58;2.47;;;2.27;;
19396;SDS011;9834;48.076;11.878;2023-03-20T07:04:27;3.00;;;2.67;;
19396;SDS011;9834;48.076;11.878;2023-03-20T07:06:56;4.30;;;2.63;;
19396;SDS011;9834;48.076;11.878;2023-03-20T07:09:24;6.53;;;2.70;;
19396;SDS011;9834;48.076;11.878;2023-03-20T07:11:52;2.77;;;2.57;;
19396;SDS011;9834;48.076;11.878;2023-03-20T07:14:19;4.63;;;2.67;;
19396;SDS011;9834;48.076;11.878;2023-03-20T07:16:46;4.87;;;3.27;;
19396;SDS011;9834;48.076;11.878;2023-03-20T07:19:14;3.97;;;2.97;;
19396;SDS011;9834;48.076;11.878;2023-03-20T07:21:42;2.40;;;2.20;;
19396;SDS011;9834;48.076;11.878;2023-03-20T07:24:09;3.10;;;2.73;;
19396;SDS011;9834;48.076;11.878;2023-03-20T07:26:37;3.00;;;2.70;;
19396;SDS011;9834;48.076;11.878;2023-03-20T07:29:05;2.67;;;2.37;;
19396;SDS011;9834;48.076;11.878;2023-03-20T07:31:33;2.97;;;2.77;;
19396;SDS011;9834;48.076;11.878;2023-03-20T07:34:00;3.83;;;3.23;;
19396;SDS011;9834;48.076;11.878;2023-03-20T07:36:27;3.97;;;2.60;;
19396;SDS011;9834;48.076;11.878;2023-03-20T07:38:56;4.27;;;2.80;;
19396;SDS011;9834;48.076;11.878;2023-03-20T07:41:23;3.83;;;2.83;;
19396;SDS011;9834;48.076;11.878;2023-03-20T07:43:50;3.17;;;2.90;;
19396;SDS011;9834;48.076;11.878;2023-03-20T07:46:18;4.87;;;2.90;;
19396;SDS011;9834;48.076;11.878;2023-03-20T07:48:45;4.13;;;2.87;;
19396;SDS011;9834;48.076;11.878;2023-03-20T07:51:13;3.00;;;2.73;;
19396;SDS011;9834;48.076;11.878;2023-03-20T07:53:40;3.67;;;3.37;;
19396;SDS011;9834;48.076;11.878;2023-03-20T07:56:10;3.17;;;2.90;;
19396;SDS011;9834;48.076;11.878;2023-03-20T07:58:37;3.97;;;3.10;;
19396;SDS011;9834;48.076;11.878;2023-03-20T08:01:05;3.23;;;2.93;;
19396;SDS011;9834;48.076;11.878;2023-03-20T08:03:32;5.27;;;3.07;;
19396;SDS011;9834;48.076;11.878;2023-03-20T08:06:00;3.80;;;3.37;;
19396;SDS011;9834;48.076;11.878;2023-03-20T08:08:30;3.27;;;2.73;;
19396;SDS011;9834;48.076;11.878;2023-03-20T08:10:57;4.23;;;3.10;;
19396;SDS011;9834;48.076;11.878;2023-03-20T08:13:26;4.03;;;3.10;;
19396;SDS011;9834;48.076;11.878;2023-03-20T08:15:54;3.33;;;3.00;;
19396;SDS011;9834;48.076;11.878;2023-03-20T08:18:22;3.00;;;2.70;;
19396;SDS011;9834;48.076;11.878;2023-03-20T08:20:49;4.53;;;2.87;;
19396;SDS011;9834;48.076;11.878;2023-03-20T08:23:17;3.20;;;2.90;;
19396;SDS011;9834;48.076;11.878;2023-03-20T08:25:46;3.63;;;3.00;;
19396;SDS011;9834;48.076;11.878;2023-03-20T08:28:14;5.20;;;3.20;;
19396;SDS011;9834;48.076;11.878;2023-03-20T08:30:43;2.47;;;2.27;;
19396;SDS011;9834;48.076;11.878;2023-03-20T08:33:10;3.03;;;2.73;;
19396;SDS011;9834;48.076;11.878;2023-03-20T08:35:38;2.83;;;2.30;;
19396;SDS011;9834;48.076;11.878;2023-03-20T08:38:06;2.37;;;2.13;;
19396;SDS011;9834;48.076;11.878;2023-03-20T08:40:35;2.67;;;2.47;;
19396;SDS011;9834;48.076;11.878;2023-03-20T08:43:02;2.63;;;2.33;;
19396;SDS011;9834;48.076;11.878;2023-03-20T08:45:30;4.13;;;2.40;;
19396;SDS011;9834;48.076;11.878;2023-03-20T08:47:59;2.30;;;2.20;;
19396;SDS011;9834;48.076;11.878;2023-03-20T08:50:26;2.40;;;2.20;;
19396;SDS011;9834;48.076;11.878;2023-03-20T08:52:54;2.50;;;2.30;;
19396;SDS011;9834;48.076;11.878;2023-03-20T08:55:21;2.43;;;2.33;;
19396;SDS011;9834;48.076;11.878;2023-03-20T08:57:49;4.30;;;2.50;;
19396;SDS011;9834;48.076;11.878;2023-03-20T09:00:19;4.10;;;3.13;;
19396;SDS011;9834;48.076;11.878;2023-03-20T09:02:46;2.37;;;2.17;;
19396;SDS011;9834;48.076;11.878;2023-03-20T09:05:15;4.13;;;2.27;;
19396;SDS011;9834;48.076;11.878;2023-03-20T09:07:43;2.30;;;2.10;;
19396;SDS011;9834;48.076;11.878;2023-03-20T09:10:11;1.77;;;1.67;;
19396;SDS011;9834;48.076;11.878;2023-03-20T09:12:38;3.13;;;1.83;;
19396;SDS011;9834;48.076;11.878;2023-03-20T09:15:06;2.17;;;1.80;;
19396;SDS011;9834;48.076;11.878;2023-03-20T09:17:34;3.80;;;2.00;;
19396;SDS011;9834;48.076;11.878;2023-03-20T09:20:01;2.97;;;1.50;;
19396;SDS011;9834;48.076;11.878;2023-03-20T09:22:32;1.47;;;1.37;;
19396;SDS011;9834;48.076;11.878;2023-03-20T09:24:59;2.40;;;1.93;;
19396;SDS011;9834;48.076;11.878;2023-03-20T09:27:27;2.17;;;2.07;;
19396;SDS011;9834;48.076;11.878;2023-03-20T09:29:54;2.77;;;1.27;;
19396;SDS011;9834;48.076;11.878;2023-03-20T09:32:22;1.50;;;1.40;;
19396;SDS011;9834;48.076;11.878;2023-03-20T09:34:49;1.40;;;1.30;;
19396;SDS011;9834;48.076;11.878;2023-03-20T09:37:17;1.33;;;1.23;;
19396;SDS011;9834;48.076;11.878;2023-03-20T09:39:46;1.87;;;1.73;;
19396;SDS011;9834;48.076;11.878;2023-03-20T09:42:18;1.00;;;1.00;;
19396;SDS011;9834;48.076;11.878;2023-03-20T09:44:56;0.70;;;0.70;;
19396;SDS011;9834;48.076;11.878;2023-03-20T09:47:32;1.00;;;1.00;;
19396;SDS011;9834;48.076;11.878;2023-03-20T09:50:13;1.60;;;1.50;;
19396;SDS011;9834;48.076;11.878;2023-03-20T09:52:52;1.73;;;1.40;;
19396;SDS011;9834;48.076;11.878;2023-03-20T09:55:26;0.80;;;0.80;;
19396;SDS011;9834;48.076;11.878;2023-03-20T09:58:01;0.97;;;0.97;;
19396;SDS011;9834;48.076;11.878;2023-03-20T10:00:32;1.50;;;1.33;;
19396;SDS011;9834;48.076;11.878;2023-03-20T10:03:01;0.80;;;0.80;;
19396;SDS011;9834;48.076;11.878;2023-03-20T10:05:32;0.90;;;0.90;;
19396;SDS011;9834;48.076;11.878;2023-03-20T10:08:03;0.47;;;0.47;;
19396;SDS011;9834;48.076;11.878;2023-03-20T10:10:38;1.03;;;1.03;;
19396;SDS011;9834;48.076;11.878;2023-03-20T10:13:28;0.80;;;0.80;;
19396;SDS011;9834;48.076;11.878;2023-03-20T10:16:15;1.50;;;1.00;;
19396;SDS011;9834;48.076;11.878;2023-03-20T10:18:48;2.10;;;1.23;;
19396;SDS011;9834;48.076;11.878;2023-03-20T10:21:26;4.67;;;1.10;;
19396;SDS011;9834;48.076;11.878;2023-03-20T10:24:03;1.50;;;1.40;;
19396;SDS011;9834;48.076;11.878;2023-03-20T10:26:34;1.67;;;0.93;;
19396;SDS011;9834;48.076;11.878;2023-03-20T10:29:04;0.67;;;0.63;;
19396;SDS011;9834;48.076;11.878;2023-03-20T10:31:40;0.70;;;0.70;;
19396;SDS011;9834;48.076;11.878;2023-03-20T10:34:21;1.67;;;1.00;;
19396;SDS011;9834;48.076;11.878;2023-03-20T10:37:01;1.53;;;1.00;;
19396;SDS011;9834;48.076;11.878;2023-03-20T10:39:42;3.03;;;1.27;;
19396;SDS011;9834;48.076;11.878;2023-03-20T10:42:20;2.27;;;1.43;;
19396;SDS011;9834;48.076;11.878;2023-03-20T10:44:52;1.30;;;1.20;;
19396;SDS011;9834;48.076;11.878;2023-03-20T10:47:23;0.97;;;0.97;;
19396;SDS011;9834;48.076;11.878;2023-03-20T10:49:56;1.00;;;1.00;;
19396;SDS011;9834;48.076;11.878;2023-03-20T10:52:27;1.07;;;0.90;;
19396;SDS011;9834;48.076;11.878;2023-03-20T10:54:57;0.80;;;0.80;;
19396;SDS011;9834;48.076;11.878;2023-03-20T10:57:30;3.60;;;0.90;;
19396;SDS011;9834;48.076;11.878;2023-03-20T11:00:02;0.70;;;0.70;;
19396;SDS011;9834;48.076;11.878;2023-03-20T11:02:35;1.13;;;1.03;;
19396;SDS011;9834;48.076;11.878;2023-03-20T11:05:04;0.77;;;0.77;;
19396;SDS011;9834;48.076;11.878;2023-03-20T11:08:00;0.63;;;0.63;;
19396;SDS011;9834;48.076;11.878;2023-03-20T11:10:30;0.63;;;0.60;;
19396;SDS011;9834;48.076;11.878;2023-03-20T11:13:04;2.47;;;1.10;;
19396;SDS011;9834;48.076;11.878;2023-03-20T11:15:43;0.80;;;0.80;;
19396;SDS011;9834;48.076;11.878;2023-03-20T11:18:11;0.70;;;0.70;;
19396;SDS011;9834;48.076;11.878;2023-03-20T11:20:43;1.10;;;1.07;;
19396;SDS011;9834;48.076;11.878;2023-03-20T11:23:14;1.27;;;1.17;;
19396;SDS011;9834;48.076;11.878;2023-03-20T11:25:45;1.43;;;1.27;;
19396;SDS011;9834;48.076;11.878;2023-03-20T11:28:20;0.87;;;0.87;;
19396;SDS011;9834;48.076;11.878;2023-03-20T11:30:59;1.20;;;1.10;;
19396;SDS011;9834;48.076;11.878;2023-03-20T11:33:29;0.83;;;0.83;;
19396;SDS011;9834;48.076;11.878;2023-03-20T11:35:58;5.20;;;1.27;;
19396;SDS011;9834;48.076;11.878;2023-03-20T11:38:25;0.80;;;0.80;;
19396;SDS011;9834;48.076;11.878;2023-03-20T11:40:56;0.53;;;0.53;;
19396;SDS011;9834;48.076;11.878;2023-03-20T11:43:26;0.47;;;0.47;;
19396;SDS011;9834;48.076;11.878;2023-03-20T11:45:54;0.20;;;0.20;;
19396;SDS011;9834;48.076;11.878;2023-03-20T11:48:23;0.43;;;0.43;;
19396;SDS011;9834;48.076;11.878;2023-03-20T11:50:55;1.23;;;0.60;;
19396;SDS011;9834;48.076;11.878;2023-03-20T11:53:29;2.13;;;1.00;;
19396;SDS011;9834;48.076;11.878;2023-03-20T11:56:01;2.30;;;0.77;;
19396;SDS011;9834;48.076;11.878;2023-03-20T11:58:32;0.93;;;0.87;;
19396;SDS011;9834;48.076;11.878;2023-03-20T12:01:02;1.00;;;0.70;;
19396;SDS011;9834;48.076;11.878;2023-03-20T12:03:41;0.27;;;0.23;;
19396;SDS011;9834;48.076;11.878;2023-03-20T12:06:14;0.73;;;0.47;;
19396;SDS011;9834;48.076;11.878;2023-03-20T12:08:45;0.40;;;0.40;;
19396;SDS011;9834;48.076;11.878;2023-03-20T12:11:30;0.30;;;0.30;;
19396;SDS011;9834;48.076;11.878;2023-03-20T12:14:11;0.33;;;0.30;;
19396;SDS011;9834;48.076;11.878;2023-03-20T12:16:44;0.57;;;0.50;;
19396;SDS011;9834;48.076;11.878;2023-03-20T12:19:16;0.50;;;0.50;;
19396;SDS011;9834;48.076;11.878;2023-03-20T12:21:47;0.40;;;0.40;;
19396;SDS011;9834;48.076;11.878;2023-03-20T12:24:25;0.30;;;0.30;;
19396;SDS011;9834;48.076;11.878;2023-03-20T12:26:59;0.30;;;0.30;;
19396;SDS011;9834;48.076;11.878;2023-03-20T12:29:42;0.50;;;0.50;;
19396;SDS011;9834;48.076;11.878;2023-03-20T12:32:15;0.33;;;0.33;;
19396;SDS011;9834;48.076;11.878;2023-03-20T12:34:47;0.13;;;0.13;;
19396;SDS011;9834;48.076;11.878;2023-03-20T12:37:16;0.40;;;0.40;;
19396;SDS011;9834;48.076;11.878;2023-03-20T12:39:46;2.53;;;0.50;;
19396;SDS011;9834;48.076;11.878;2023-03-20T12:42:17;1.77;;;0.43;;
19396;SDS011;9834;48.076;11.878;2023-03-20T12:45:02;0.80;;;0.80;;
19396;SDS011;9834;48.076;11.878;2023-03-20T12:50:32;0.43;;;0.43;;
19396;SDS011;9834;48.076;11.878;2023-03-20T12:53:06;0.70;;;0.70;;
19396;SDS011;9834;48.076;11.878;2023-03-20T12:55:48;0.80;;;0.80;;
19396;SDS011;9834;48.076;11.878;2023-03-20T12:58:26;0.77;;;0.77;;
19396;SDS011;9834;48.076;11.878;2023-03-20T13:01:04;0.87;;;0.80;;
19396;SDS011;9834;48.076;11.878;2023-03-20T13:03:40;0.50;;;0.50;;
19396;SDS011;9834;48.076;11.878;2023-03-20T13:06:25;0.70;;;0.50;;
19396;SDS011;9834;48.076;11.878;2023-03-20T13:12:07;0.40;;;0.40;;
19396;SDS011;9834;48.076;11.878;2023-03-20T13:14:46;0.77;;;0.77;;
19396;SDS011;9834;48.076;11.878;2023-03-20T13:17:22;1.00;;;0.90;;
19396;SDS011;9834;48.076;11.878;2023-03-20T13:19:58;1.13;;;0.40;;
19396;SDS011;9834;48.076;11.878;2023-03-20T13:22:44;0.40;;;0.40;;
19396;SDS011;9834;48.076;11.878;2023-03-20T13:25:31;0.43;;;0.30;;
19396;SDS011;9834;48.076;11.878;2023-03-20T13:28:13;0.50;;;0.50;;
19396;SDS011;9834;48.076;11.878;2023-03-20T13:30:49;0.40;;;0.40;;
19396;SDS011;9834;48.076;11.878;2023-03-20T13:33:25;0.50;;;0.50;;
19396;SDS011;9834;48.076;11.878;2023-03-20T13:36:09;3.60;;;0.90;;
19396;SDS011;9834;48.076;11.878;2023-03-20T13:38:44;0.97;;;0.53;;
19396;SDS011;9834;48.076;11.878;2023-03-20T13:41:14;0.40;;;0.40;;
19396;SDS011;9834;48.076;11.878;2023-03-20T13:43:44;0.60;;;0.60;;
19396;SDS011;9834;48.076;11.878;2023-03-20T13:46:19;0.70;;;0.70;;
19396;SDS011;9834;48.076;11.878;2023-03-20T13:48:51;1.37;;;0.80;;
19396;SDS011;9834;48.076;11.878;2023-03-20T13:51:25;0.80;;;0.80;;
19396;SDS011;9834;48.076;11.878;2023-03-20T13:53:59;0.53;;;0.53;;
19396;SDS011;9834;48.076;11.878;2023-03-20T13:56:38;1.07;;;0.60;;
19396;SDS011;9834;48.076;11.878;2023-03-20T14:02:39;0.73;;;0.60;;
19396;SDS011;9834;48.076;11.878;2023-03-20T14:05:23;0.37;;;0.37;;
19396;SDS011;9834;48.076;11.878;2023-03-20T14:07:54;0.80;;;0.80;;
19396;SDS011;9834;48.076;11.878;2023-03-20T14:10:35;0.60;;;0.60;;
19396;SDS011;9834;48.076;11.878;2023-03-20T14:13:04;0.80;;;0.80;;
19396;SDS011;9834;48.076;11.878;2023-03-20T14:15:37;0.47;;;0.47;;
19396;SDS011;9834;48.076;11.878;2023-03-20T14:18:12;0.60;;;0.60;;
19396;SDS011;9834;48.076;11.878;2023-03-20T14:20:43;0.63;;;0.63;;
19396;SDS011;9834;48.076;11.878;2023-03-20T14:23:19;0.50;;;0.50;;
19396;SDS011;9834;48.076;11.878;2023-03-20T14:25:56;0.50;;;0.50;;
19396;SDS011;9834;48.076;11.878;2023-03-20T14:28:25;0.52;;;0.52;;
19396;SDS011;9834;48.076;11.878;2023-03-20T14:31:11;0.80;;;0.52;;
19396;SDS011;9834;48.076;11.878;2023-03-20T14:33:52;0.70;;;0.70;;
19396;SDS011;9834;48.076;11.878;2023-03-20T14:36:42;0.60;;;0.60;;
19396;SDS011;9834;48.076;11.878;2023-03-20T14:39:14;0.63;;;0.63;;
19396;SDS011;9834;48.076;11.878;2023-03-20T14:41:57;4.63;;;0.60;;
19396;SDS011;9834;48.076;11.878;2023-03-20T14:44:34;1.08;;;0.98;;
19396;SDS011;9834;48.076;11.878;2023-03-20T14:47:16;1.25;;;1.15;;
19396;SDS011;9834;48.076;11.878;2023-03-20T14:49:52;1.25;;;1.15;;
19396;SDS011;9834;48.076;11.878;2023-03-20T14:52:30;2.90;;;1.80;;
19396;SDS011;9834;48.076;11.878;2023-03-20T14:55:14;1.70;;;1.30;;
19396;SDS011;9834;48.076;11.878;2023-03-20T14:57:56;0.80;;;0.77;;
19396;SDS011;9834;48.076;11.878;2023-03-20T15:00:27;0.53;;;0.53;;
19396;SDS011;9834;48.076;11.878;2023-03-20T15:03:03;0.20;;;0.20;;
19396;SDS011;9834;48.076;11.878;2023-03-20T15:05:35;0.30;;;0.30;;
19396;SDS011;9834;48.076;11.878;2023-03-20T15:08:05;0.63;;;0.63;;
19396;SDS011;9834;48.076;11.878;2023-03-20T15:10:41;0.50;;;0.50;;
19396;SDS011;9834;48.076;11.878;2023-03-20T15:13:15;0.73;;;0.73;;
19396;SDS011;9834;48.076;11.878;2023-03-20T15:15:51;0.50;;;0.50;;
19396;SDS011;9834;48.076;11.878;2023-03-20T15:18:21;0.67;;;0.67;;
19396;SDS011;9834;48.076;11.878;2023-03-20T15:20:49;1.03;;;0.73;;
19396;SDS011;9834;48.076;11.878;2023-03-20T15:23:18;0.60;;;0.60;;
19396;SDS011;9834;48.076;11.878;2023-03-20T15:25:46;0.60;;;0.60;;
19396;SDS011;9834;48.076;11.878;2023-03-20T15:28:15;0.50;;;0.50;;
19396;SDS011;9834;48.076;11.878;2023-03-20T15:30:46;5.33;;;0.97;;